• Join FlightAware (Why Join?)
  • Login
  • US Flag 
12:19AM EDT


 

Airport Tracker/Info


-or-


 

Live Flight TrackerFlight Track Log ✈ UCA5001 ✈ 29-Apr-2013 ✈ KALB - KEWR

Flight Track Log - Related Links

Times and Time Zones

All times are in EDT time to prevent confusion due to time zone crossing. See the UCA5001 flight status page for this flight to view local times or setup timezone preferences in your user account.

Time Position Orientation Groundspeed Altitude Reporting Facility
EDT Latitude Longitude Course Direction KTS MPH feet Rate Location/Type
12:08PM 42.7403 -73.8083 192° South 120 138 1,000  Level Boston Center
12:09PM 42.6964 -73.8214 192° South 147 169 3,000 1,620 Climbing Boston Center
12:10PM 42.6711 -73.8464 216° Southwest 149 171 4,300 1,500 Climbing Boston Center
12:11PM 42.6353 -73.8767 212° Southwest 152 175 5,800 1,440 Climbing Boston Center
12:12PM 42.6014 -73.9011 208° Southwest 163 188 6,900 1,500 Climbing Boston Center
12:13PM 42.5572 -73.9339 209° Southwest 171 197 8,500 1,500 Climbing Boston Center
12:14PM 42.5214 -73.9642 212° Southwest 186 214 10,000 780 Climbing Boston Center
12:15PM 42.4689 -74.0050 210° Southwest 208 239 10,100  Climbing Boston Center
12:16PM 42.4097 -74.0486 209° Southwest 242 278 10,000 -60 Descending Boston Center
12:17PM 42.3531 -74.0919 209° Southwest 249 287 10,000 -60 Level Boston Center
12:18PM 42.2939 -74.1353 208° Southwest 244 281 9,900  Descending Boston Center
12:19PM 42.2392 -74.1789 211° Southwest 249 287 10,000  Climbing Boston Center
12:20PM 42.1694 -74.2272 207° Southwest 242 278 9,900 -360 Descending Boston Center
12:21PM 42.1211 -74.2678 212° Southwest 237 273 9,300 -900 Descending Boston Center
12:22PM 42.0578 -74.3136 208° Southwest 237 273 8,200 -960 Descending Boston Center
12:23PM 42.0050 -74.3511 208° Southwest 237 273 7,400 -600 Descending Boston Center
12:24PM 41.9439 -74.3939 208° Southwest 230 265 7,100 -180 Descending Boston Center
12:25PM 41.8978 -74.4092 194° South 209 241 7,100  Level Boston Center
12:26PM 41.8411 -74.4325 197° South 197 227 7,100  Level Boston Center
12:27PM 41.7947 -74.4478 194° South 197 227 7,100  Level Boston Center
12:28PM 41.7381 -74.4711 197° South 202 232 7,100  Level Boston Center
12:29PM 41.6919 -74.4864 194° South 202 232 7,100 -300 Level Boston Center
12:30PM 41.6458 -74.5042 196° South 182 209 6,600 -540 Descending Boston Center
12:31PM 41.6100 -74.5197 198° South 161 185 6,100 -300 Descending Boston Center
12:32PM 41.5661 -74.5350 195° South 156 180 6,100  Level Boston Center
12:33PM 41.5283 -74.5475 194° South 156 180 6,100  Level Boston Center
12:34PM 41.4822 -74.5656 196° South 156 180 6,100  Level Boston Center
12:35PM 41.4506 -74.5783 197° South 145 167 6,100  Level Boston Center
12:36PM 41.4067 -74.5933 194° South 145 167 6,100  Level Boston Center
12:37PM 41.4161 -74.6325 288° West 83 96 6,100  Level Boston Center
12:38PM 41.4747 -74.6317 North 156 180 6,100  Level Boston Center
12:39PM 41.5147 -74.6081 24° Northeast 175 201 6,100  Level Boston Center
12:40PM 41.4819 -74.5792 147° Southeast 61 70 6,100 -60 Level Boston Center
12:42PM 41.3833 -74.6000 189° South 180 207 6,000 -60 Descending New York TRACON
12:43PM 41.3167 -74.6333 201° Southwest 213 245 6,000 -420 Level New York TRACON
12:44PM 41.2667 -74.6333 180° South 226 260 5,200 -540 Descending New York TRACON
12:45PM 41.2167 -74.5833 143° Southeast 235 270 5,000 -120 Descending New York TRACON
12:46PM 41.1667 -74.5167 135° Southeast 231 266 5,000  Level New York TRACON
12:47PM 41.1333 -74.4667 132° Southeast 229 264 5,000  Level New York TRACON
12:48PM 41.1000 -74.4000 124° Southeast 228 262 5,000  Level New York TRACON
12:49PM 41.0500 -74.3333 135° Southeast 225 259 5,000  Level New York TRACON
12:50PM 41.0000 -74.2833 143° Southeast 227 261 5,000  Level New York TRACON
12:51PM 40.9667 -74.2333 131° Southeast 204 235 5,000 -480 Level New York TRACON
12:52PM 40.9333 -74.1833 131° Southeast 156 180 4,100 -540 Descending New York TRACON
12:53PM 40.9167 -74.1500 123° Southeast 150 173 4,000 -420 Descending New York TRACON
12:54PM 40.8833 -74.1000 131° Southeast 160 184 3,400 -720 Descending New York TRACON
12:55PM 40.8500 -74.0833 159° South 148 170 2,500 -480 Descending New York TRACON
12:56PM 40.8000 -74.1000 194° South 147 169 2,400 -600 Descending New York TRACON
12:57PM 40.7500 -74.1333 207° Southwest 166 191 1,300 -900 Descending New York TRACON
12:58PM 40.7333 -74.1500 217° Southwest 131 151 700 -720 Descending New York TRACON
01:00PM 40.6925 -74.1687 205° Southwest  Level Estimated